sensor_id;sensor_type;location;lat;lon;timestamp;temperature;humidity
18753;DHT22;9505;50.882;5.350;2022-07-22T00:01:01;16.70;99.90
18753;DHT22;9505;50.882;5.350;2022-07-22T00:03:27;16.70;99.90
18753;DHT22;9505;50.882;5.350;2022-07-22T00:05:52;16.70;99.90
18753;DHT22;9505;50.882;5.350;2022-07-22T00:08:18;16.80;99.90
18753;DHT22;9505;50.882;5.350;2022-07-22T00:10:43;16.80;99.90
18753;DHT22;9505;50.882;5.350;2022-07-22T00:13:09;16.80;99.90
18753;DHT22;9505;50.882;5.350;2022-07-22T00:15:35;16.90;99.90
18753;DHT22;9505;50.882;5.350;2022-07-22T00:18:00;16.90;99.90
18753;DHT22;9505;50.882;5.350;2022-07-22T00:20:26;16.90;99.90
18753;DHT22;9505;50.882;5.350;2022-07-22T00:22:52;16.80;99.90
18753;DHT22;9505;50.882;5.350;2022-07-22T00:25:17;16.80;99.90
18753;DHT22;9505;50.882;5.350;2022-07-22T00:27:43;16.90;99.90
18753;DHT22;9505;50.882;5.350;2022-07-22T00:30:09;16.80;99.90
18753;DHT22;9505;50.882;5.350;2022-07-22T00:32:35;16.80;99.90
18753;DHT22;9505;50.882;5.350;2022-07-22T00:35:01;16.70;99.90
18753;DHT22;9505;50.882;5.350;2022-07-22T00:37:26;16.70;99.90
18753;DHT22;9505;50.882;5.350;2022-07-22T00:39:52;16.60;99.90
18753;DHT22;9505;50.882;5.350;2022-07-22T00:42:18;16.60;99.90
18753;DHT22;9505;50.882;5.350;2022-07-22T00:44:43;16.50;99.90
18753;DHT22;9505;50.882;5.350;2022-07-22T00:47:09;16.40;99.90
18753;DHT22;9505;50.882;5.350;2022-07-22T00:49:35;16.40;99.90
18753;DHT22;9505;50.882;5.350;2022-07-22T00:52:01;16.20;99.90
18753;DHT22;9505;50.882;5.350;2022-07-22T00:54:27;16.20;99.90
18753;DHT22;9505;50.882;5.350;2022-07-22T00:56:53;16.10;99.90
18753;DHT22;9505;50.882;5.350;2022-07-22T00:59:18;16.00;99.90
18753;DHT22;9505;50.882;5.350;2022-07-22T01:01:44;15.90;99.90
18753;DHT22;9505;50.882;5.350;2022-07-22T01:04:10;15.90;99.90
18753;DHT22;9505;50.882;5.350;2022-07-22T01:06:35;15.80;99.90
18753;DHT22;9505;50.882;5.350;2022-07-22T01:09:01;15.80;99.90
18753;DHT22;9505;50.882;5.350;2022-07-22T01:11:27;15.70;99.90
18753;DHT22;9505;50.882;5.350;2022-07-22T01:13:54;15.70;99.90
18753;DHT22;9505;50.882;5.350;2022-07-22T01:16:21;15.60;99.90
18753;DHT22;9505;50.882;5.350;2022-07-22T01:18:47;15.60;99.90
18753;DHT22;9505;50.882;5.350;2022-07-22T01:21:15;15.50;99.90
18753;DHT22;9505;50.882;5.350;2022-07-22T01:23:41;15.50;99.90
18753;DHT22;9505;50.882;5.350;2022-07-22T01:26:07;15.40;99.90
18753;DHT22;9505;50.882;5.350;2022-07-22T01:28:33;15.40;99.90
18753;DHT22;9505;50.882;5.350;2022-07-22T01:30:59;15.30;99.90
18753;DHT22;9505;50.882;5.350;2022-07-22T01:33:25;15.30;99.90
18753;DHT22;9505;50.882;5.350;2022-07-22T01:35:51;15.30;99.90
18753;DHT22;9505;50.882;5.350;2022-07-22T01:38:17;15.30;99.90
18753;DHT22;9505;50.882;5.350;2022-07-22T01:40:44;15.30;99.90
18753;DHT22;9505;50.882;5.350;2022-07-22T01:43:09;15.30;99.90
18753;DHT22;9505;50.882;5.350;2022-07-22T01:45:35;15.30;99.90
18753;DHT22;9505;50.882;5.350;2022-07-22T01:48:01;15.30;99.90
18753;DHT22;9505;50.882;5.350;2022-07-22T01:50:27;15.40;99.90
18753;DHT22;9505;50.882;5.350;2022-07-22T01:52:53;15.40;99.90
18753;DHT22;9505;50.882;5.350;2022-07-22T01:55:18;15.30;99.90
18753;DHT22;9505;50.882;5.350;2022-07-22T01:57:44;15.30;99.90
18753;DHT22;9505;50.882;5.350;2022-07-22T02:00:11;15.30;99.90
18753;DHT22;9505;50.882;5.350;2022-07-22T02:02:37;15.30;99.90
18753;DHT22;9505;50.882;5.350;2022-07-22T02:05:04;15.30;99.90
18753;DHT22;9505;50.882;5.350;2022-07-22T02:07:30;15.30;99.90
18753;DHT22;9505;50.882;5.350;2022-07-22T02:09:56;15.20;99.90
18753;DHT22;9505;50.882;5.350;2022-07-22T02:12:21;15.20;99.90
18753;DHT22;9505;50.882;5.350;2022-07-22T02:14:47;15.10;99.90
18753;DHT22;9505;50.882;5.350;2022-07-22T02:17:14;15.10;99.90
18753;DHT22;9505;50.882;5.350;2022-07-22T02:19:40;15.10;99.90
18753;DHT22;9505;50.882;5.350;2022-07-22T02:22:06;15.10;99.90
18753;DHT22;9505;50.882;5.350;2022-07-22T02:24:32;15.00;99.90
18753;DHT22;9505;50.882;5.350;2022-07-22T02:26:58;15.00;99.90
18753;DHT22;9505;50.882;5.350;2022-07-22T02:29:23;15.00;99.90
18753;DHT22;9505;50.882;5.350;2022-07-22T02:31:49;15.00;99.90
18753;DHT22;9505;50.882;5.350;2022-07-22T02:34:15;15.00;99.90
18753;DHT22;9505;50.882;5.350;2022-07-22T02:36:41;15.00;99.90
18753;DHT22;9505;50.882;5.350;2022-07-22T02:39:06;15.00;99.90
18753;DHT22;9505;50.882;5.350;2022-07-22T02:41:32;15.00;99.90
18753;DHT22;9505;50.882;5.350;2022-07-22T02:43:58;15.00;99.90
18753;DHT22;9505;50.882;5.350;2022-07-22T02:46:24;14.90;99.90
18753;DHT22;9505;50.882;5.350;2022-07-22T02:48:50;15.00;99.90
18753;DHT22;9505;50.882;5.350;2022-07-22T02:51:16;14.90;99.90
18753;DHT22;9505;50.882;5.350;2022-07-22T02:53:42;15.00;99.90
18753;DHT22;9505;50.882;5.350;2022-07-22T02:56:08;14.90;99.90
18753;DHT22;9505;50.882;5.350;2022-07-22T02:58:33;14.90;99.90
18753;DHT22;9505;50.882;5.350;2022-07-22T03:00:59;14.90;99.90
18753;DHT22;9505;50.882;5.350;2022-07-22T03:03:25;14.90;99.90
18753;DHT22;9505;50.882;5.350;2022-07-22T03:05:51;14.90;99.90
18753;DHT22;9505;50.882;5.350;2022-07-22T03:08:17;14.90;99.90
18753;DHT22;9505;50.882;5.350;2022-07-22T03:10:42;14.80;99.90
18753;DHT22;9505;50.882;5.350;2022-07-22T03:13:08;14.90;99.90
18753;DHT22;9505;50.882;5.350;2022-07-22T03:15:34;14.90;99.90
18753;DHT22;9505;50.882;5.350;2022-07-22T03:17:59;14.90;99.90
18753;DHT22;9505;50.882;5.350;2022-07-22T03:20:26;14.90;99.90
18753;DHT22;9505;50.882;5.350;2022-07-22T03:22:52;14.90;99.90
18753;DHT22;9505;50.882;5.350;2022-07-22T03:25:17;15.00;99.90
18753;DHT22;9505;50.882;5.350;2022-07-22T03:27:43;15.00;99.90
18753;DHT22;9505;50.882;5.350;2022-07-22T03:30:09;14.90;99.90
18753;DHT22;9505;50.882;5.350;2022-07-22T03:32:34;14.90;99.90
18753;DHT22;9505;50.882;5.350;2022-07-22T03:35:00;14.90;99.90
18753;DHT22;9505;50.882;5.350;2022-07-22T03:37:26;14.90;99.90
18753;DHT22;9505;50.882;5.350;2022-07-22T03:39:51;14.90;99.90
18753;DHT22;9505;50.882;5.350;2022-07-22T03:42:17;14.90;99.90
18753;DHT22;9505;50.882;5.350;2022-07-22T03:44:42;14.90;99.90
18753;DHT22;9505;50.882;5.350;2022-07-22T03:47:08;15.00;99.90
18753;DHT22;9505;50.882;5.350;2022-07-22T03:49:34;14.90;99.90
18753;DHT22;9505;50.882;5.350;2022-07-22T03:51:59;15.00;99.90
18753;DHT22;9505;50.882;5.350;2022-07-22T03:54:26;14.90;99.90
18753;DHT22;9505;50.882;5.350;2022-07-22T03:56:51;15.00;99.90
18753;DHT22;9505;50.882;5.350;2022-07-22T03:59:17;15.00;99.90
18753;DHT22;9505;50.882;5.350;2022-07-22T04:01:43;15.00;99.90
18753;DHT22;9505;50.882;5.350;2022-07-22T04:04:08;15.00;99.90
18753;DHT22;9505;50.882;5.350;2022-07-22T04:06:34;15.00;99.90
18753;DHT22;9505;50.882;5.350;2022-07-22T04:09:00;15.10;99.90
18753;DHT22;9505;50.882;5.350;2022-07-22T04:11:26;15.10;99.90
18753;DHT22;9505;50.882;5.350;2022-07-22T04:13:52;15.00;99.90
18753;DHT22;9505;50.882;5.350;2022-07-22T04:16:17;15.00;99.90
18753;DHT22;9505;50.882;5.350;2022-07-22T04:18:43;15.10;99.90
18753;DHT22;9505;50.882;5.350;2022-07-22T04:21:09;15.10;99.90
18753;DHT22;9505;50.882;5.350;2022-07-22T04:23:34;15.10;99.90
18753;DHT22;9505;50.882;5.350;2022-07-22T04:26:00;15.10;99.90
18753;DHT22;9505;50.882;5.350;2022-07-22T04:28:26;15.10;99.90
18753;DHT22;9505;50.882;5.350;2022-07-22T04:30:52;15.10;99.90
18753;DHT22;9505;50.882;5.350;2022-07-22T04:33:17;15.10;99.90
18753;DHT22;9505;50.882;5.350;2022-07-22T04:35:43;15.10;99.90
18753;DHT22;9505;50.882;5.350;2022-07-22T04:38:09;15.10;99.90
18753;DHT22;9505;50.882;5.350;2022-07-22T04:40:35;15.10;99.90
18753;DHT22;9505;50.882;5.350;2022-07-22T04:43:01;15.10;99.90
18753;DHT22;9505;50.882;5.350;2022-07-22T04:45:26;15.10;99.90
18753;DHT22;9505;50.882;5.350;2022-07-22T04:47:52;15.10;99.90
18753;DHT22;9505;50.882;5.350;2022-07-22T04:50:18;15.10;99.90
18753;DHT22;9505;50.882;5.350;2022-07-22T04:52:43;15.10;99.90
18753;DHT22;9505;50.882;5.350;2022-07-22T04:55:09;15.10;99.90
18753;DHT22;9505;50.882;5.350;2022-07-22T04:57:35;15.10;99.90
18753;DHT22;9505;50.882;5.350;2022-07-22T05:00:01;15.20;99.90
18753;DHT22;9505;50.882;5.350;2022-07-22T05:02:27;15.30;99.90
18753;DHT22;9505;50.882;5.350;2022-07-22T05:04:53;15.40;99.90
18753;DHT22;9505;50.882;5.350;2022-07-22T05:07:18;15.50;99.90
18753;DHT22;9505;50.882;5.350;2022-07-22T05:09:44;15.60;99.90
18753;DHT22;9505;50.882;5.350;2022-07-22T05:12:10;15.70;99.90
18753;DHT22;9505;50.882;5.350;2022-07-22T05:14:35;15.80;99.90
18753;DHT22;9505;50.882;5.350;2022-07-22T05:17:01;15.90;99.90
18753;DHT22;9505;50.882;5.350;2022-07-22T05:19:27;15.90;99.90
18753;DHT22;9505;50.882;5.350;2022-07-22T05:21:52;15.90;99.90
18753;DHT22;9505;50.882;5.350;2022-07-22T05:24:18;16.10;99.90
18753;DHT22;9505;50.882;5.350;2022-07-22T05:26:43;16.20;99.90
18753;DHT22;9505;50.882;5.350;2022-07-22T05:29:09;16.50;99.90
18753;DHT22;9505;50.882;5.350;2022-07-22T05:31:35;16.60;99.90
18753;DHT22;9505;50.882;5.350;2022-07-22T05:34:00;16.70;99.90
18753;DHT22;9505;50.882;5.350;2022-07-22T05:36:26;16.90;99.90
18753;DHT22;9505;50.882;5.350;2022-07-22T05:38:52;17.20;99.90
18753;DHT22;9505;50.882;5.350;2022-07-22T05:41:17;17.50;99.90
18753;DHT22;9505;50.882;5.350;2022-07-22T05:43:43;18.00;99.90
18753;DHT22;9505;50.882;5.350;2022-07-22T05:46:09;18.50;99.90
18753;DHT22;9505;50.882;5.350;2022-07-22T05:48:34;18.60;99.90
18753;DHT22;9505;50.882;5.350;2022-07-22T05:51:00;18.70;99.90
18753;DHT22;9505;50.882;5.350;2022-07-22T05:53:26;18.80;99.90
18753;DHT22;9505;50.882;5.350;2022-07-22T05:55:51;19.00;99.90
18753;DHT22;9505;50.882;5.350;2022-07-22T05:58:17;19.20;99.90
18753;DHT22;9505;50.882;5.350;2022-07-22T06:00:43;19.30;99.90
18753;DHT22;9505;50.882;5.350;2022-07-22T06:03:09;19.60;99.90
18753;DHT22;9505;50.882;5.350;2022-07-22T06:05:35;20.60;99.90
18753;DHT22;9505;50.882;5.350;2022-07-22T06:08:04;22.30;99.90
18753;DHT22;9505;50.882;5.350;2022-07-22T06:10:29;22.30;99.90
18753;DHT22;9505;50.882;5.350;2022-07-22T06:12:55;21.70;99.90
18753;DHT22;9505;50.882;5.350;2022-07-22T06:15:21;21.10;99.90
18753;DHT22;9505;50.882;5.350;2022-07-22T06:17:46;20.90;99.90
18753;DHT22;9505;50.882;5.350;2022-07-22T06:20:12;20.90;99.90
18753;DHT22;9505;50.882;5.350;2022-07-22T06:22:40;20.90;99.90
18753;DHT22;9505;50.882;5.350;2022-07-22T06:25:06;21.10;99.90
18753;DHT22;9505;50.882;5.350;2022-07-22T06:27:31;21.30;99.90
18753;DHT22;9505;50.882;5.350;2022-07-22T06:29:57;21.40;99.90
18753;DHT22;9505;50.882;5.350;2022-07-22T06:32:23;21.10;99.90
18753;DHT22;9505;50.882;5.350;2022-07-22T06:34:48;20.80;99.90
18753;DHT22;9505;50.882;5.350;2022-07-22T06:37:14;20.60;99.90
18753;DHT22;9505;50.882;5.350;2022-07-22T06:39:40;20.50;99.90
18753;DHT22;9505;50.882;5.350;2022-07-22T06:42:05;20.90;99.90
18753;DHT22;9505;50.882;5.350;2022-07-22T06:44:31;21.10;99.90
18753;DHT22;9505;50.882;5.350;2022-07-22T06:46:56;21.10;99.90
18753;DHT22;9505;50.882;5.350;2022-07-22T06:49:22;21.10;99.90
18753;DHT22;9505;50.882;5.350;2022-07-22T06:51:48;20.90;99.90
18753;DHT22;9505;50.882;5.350;2022-07-22T06:54:13;20.80;99.90
18753;DHT22;9505;50.882;5.350;2022-07-22T06:56:39;21.10;99.90
18753;DHT22;9505;50.882;5.350;2022-07-22T06:59:04;21.20;99.90
18753;DHT22;9505;50.882;5.350;2022-07-22T07:01:30;21.20;99.90
18753;DHT22;9505;50.882;5.350;2022-07-22T07:03:56;21.40;99.90
18753;DHT22;9505;50.882;5.350;2022-07-22T07:06:21;21.80;99.90
18753;DHT22;9505;50.882;5.350;2022-07-22T07:08:47;22.10;99.90
18753;DHT22;9505;50.882;5.350;2022-07-22T07:11:13;23.80;99.90
18753;DHT22;9505;50.882;5.350;2022-07-22T07:13:39;26.60;99.90
18753;DHT22;9505;50.882;5.350;2022-07-22T07:16:05;27.90;99.90
18753;DHT22;9505;50.882;5.350;2022-07-22T07:18:30;29.20;99.90
18753;DHT22;9505;50.882;5.350;2022-07-22T07:20:56;31.30;99.90
18753;DHT22;9505;50.882;5.350;2022-07-22T07:23:22;33.00;95.30
18753;DHT22;9505;50.882;5.350;2022-07-22T07:25:48;33.20;91.30
18753;DHT22;9505;50.882;5.350;2022-07-22T07:28:14;32.90;90.90
18753;DHT22;9505;50.882;5.350;2022-07-22T07:30:39;33.00;90.70
18753;DHT22;9505;50.882;5.350;2022-07-22T07:33:05;32.90;90.20
18753;DHT22;9505;50.882;5.350;2022-07-22T07:35:30;32.90;91.30
18753;DHT22;9505;50.882;5.350;2022-07-22T07:37:56;34.30;88.90
18753;DHT22;9505;50.882;5.350;2022-07-22T07:40:22;34.30;85.40
18753;DHT22;9505;50.882;5.350;2022-07-22T07:42:47;34.50;87.80
18753;DHT22;9505;50.882;5.350;2022-07-22T07:45:13;35.20;87.00
18753;DHT22;9505;50.882;5.350;2022-07-22T07:47:39;35.70;79.70
18753;DHT22;9505;50.882;5.350;2022-07-22T07:50:06;35.00;77.70
18753;DHT22;9505;50.882;5.350;2022-07-22T07:52:43;32.90;82.80
18753;DHT22;9505;50.882;5.350;2022-07-22T07:55:10;32.00;86.10
18753;DHT22;9505;50.882;5.350;2022-07-22T07:57:37;30.30;90.10
18753;DHT22;9505;50.882;5.350;2022-07-22T08:00:05;28.20;90.60
18753;DHT22;9505;50.882;5.350;2022-07-22T08:02:32;25.80;95.60
18753;DHT22;9505;50.882;5.350;2022-07-22T08:04:57;24.20;99.60
18753;DHT22;9505;50.882;5.350;2022-07-22T08:07:23;23.60;99.90
18753;DHT22;9505;50.882;5.350;2022-07-22T08:09:48;23.10;99.90
18753;DHT22;9505;50.882;5.350;2022-07-22T08:12:15;22.90;99.90
18753;DHT22;9505;50.882;5.350;2022-07-22T08:14:41;23.10;99.90
18753;DHT22;9505;50.882;5.350;2022-07-22T08:17:06;23.60;99.90
18753;DHT22;9505;50.882;5.350;2022-07-22T08:19:32;23.80;99.90
18753;DHT22;9505;50.882;5.350;2022-07-22T08:21:58;23.90;99.90
18753;DHT22;9505;50.882;5.350;2022-07-22T08:24:24;24.30;99.90
18753;DHT22;9505;50.882;5.350;2022-07-22T08:26:49;24.70;99.90
18753;DHT22;9505;50.882;5.350;2022-07-22T08:29:15;25.40;99.90
18753;DHT22;9505;50.882;5.350;2022-07-22T08:31:41;25.80;99.90
18753;DHT22;9505;50.882;5.350;2022-07-22T08:34:07;25.80;99.90
18753;DHT22;9505;50.882;5.350;2022-07-22T08:36:32;25.20;99.90
18753;DHT22;9505;50.882;5.350;2022-07-22T08:38:58;25.00;99.90
18753;DHT22;9505;50.882;5.350;2022-07-22T08:41:24;24.70;99.90
18753;DHT22;9505;50.882;5.350;2022-07-22T08:43:51;24.20;99.90
18753;DHT22;9505;50.882;5.350;2022-07-22T08:46:17;24.70;99.90
18753;DHT22;9505;50.882;5.350;2022-07-22T08:48:43;24.90;99.90
18753;DHT22;9505;50.882;5.350;2022-07-22T08:51:09;24.90;99.90
18753;DHT22;9505;50.882;5.350;2022-07-22T08:53:35;24.90;99.90
18753;DHT22;9505;50.882;5.350;2022-07-22T08:56:00;24.90;99.90
18753;DHT22;9505;50.882;5.350;2022-07-22T08:58:26;24.70;99.90
18753;DHT22;9505;50.882;5.350;2022-07-22T09:04:01;24.70;99.90
18753;DHT22;9505;50.882;5.350;2022-07-22T09:06:28;25.20;99.90
18753;DHT22;9505;50.882;5.350;2022-07-22T09:09:06;24.80;99.90
18753;DHT22;9505;50.882;5.350;2022-07-22T09:11:34;24.60;99.90
18753;DHT22;9505;50.882;5.350;2022-07-22T09:14:01;24.60;99.90
18753;DHT22;9505;50.882;5.350;2022-07-22T09:16:47;24.90;99.90
18753;DHT22;9505;50.882;5.350;2022-07-22T09:19:14;24.90;99.90
18753;DHT22;9505;50.882;5.350;2022-07-22T09:21:44;24.60;99.90
18753;DHT22;9505;50.882;5.350;2022-07-22T09:24:30;24.50;99.90
18753;DHT22;9505;50.882;5.350;2022-07-22T09:26:56;24.30;99.90
18753;DHT22;9505;50.882;5.350;2022-07-22T09:29:21;23.80;99.90
18753;DHT22;9505;50.882;5.350;2022-07-22T09:31:51;23.90;99.90
18753;DHT22;9505;50.882;5.350;2022-07-22T09:34:28;24.00;99.90
18753;DHT22;9505;50.882;5.350;2022-07-22T09:36:56;24.00;99.90
18753;DHT22;9505;50.882;5.350;2022-07-22T09:39:30;24.00;99.90
18753;DHT22;9505;50.882;5.350;2022-07-22T09:42:04;23.50;99.90
18753;DHT22;9505;50.882;5.350;2022-07-22T09:44:30;23.70;99.90
18753;DHT22;9505;50.882;5.350;2022-07-22T09:46:56;23.90;99.90
18753;DHT22;9505;50.882;5.350;2022-07-22T09:49:38;24.60;99.90
18753;DHT22;9505;50.882;5.350;2022-07-22T09:52:07;24.80;99.90
18753;DHT22;9505;50.882;5.350;2022-07-22T09:54:32;24.80;99.90
18753;DHT22;9505;50.882;5.350;2022-07-22T09:56:58;24.80;99.90
18753;DHT22;9505;50.882;5.350;2022-07-22T09:59:24;25.50;99.90
18753;DHT22;9505;50.882;5.350;2022-07-22T10:01:54;25.90;99.90
18753;DHT22;9505;50.882;5.350;2022-07-22T10:04:21;26.00;99.90
18753;DHT22;9505;50.882;5.350;2022-07-22T10:06:50;26.60;99.90
18753;DHT22;9505;50.882;5.350;2022-07-22T10:09:17;26.80;99.90
18753;DHT22;9505;50.882;5.350;2022-07-22T10:11:43;26.90;99.90
18753;DHT22;9505;50.882;5.350;2022-07-22T10:14:14;25.90;99.90
18753;DHT22;9505;50.882;5.350;2022-07-22T10:16:40;25.80;99.90
18753;DHT22;9505;50.882;5.350;2022-07-22T10:19:06;25.70;99.90
18753;DHT22;9505;50.882;5.350;2022-07-22T10:21:33;25.60;99.90
18753;DHT22;9505;50.882;5.350;2022-07-22T10:24:14;26.00;99.90
18753;DHT22;9505;50.882;5.350;2022-07-22T10:29:39;26.90;99.90
18753;DHT22;9505;50.882;5.350;2022-07-22T10:40:12;26.60;99.90
18753;DHT22;9505;50.882;5.350;2022-07-22T10:47:56;27.00;99.90
18753;DHT22;9505;50.882;5.350;2022-07-22T10:53:10;26.70;99.90
18753;DHT22;9505;50.882;5.350;2022-07-22T10:55:36;26.90;99.90
18753;DHT22;9505;50.882;5.350;2022-07-22T11:00:56;26.40;99.90
18753;DHT22;9505;50.882;5.350;2022-07-22T11:03:25;25.80;99.90
18753;DHT22;9505;50.882;5.350;2022-07-22T11:05:51;25.20;99.90
18753;DHT22;9505;50.882;5.350;2022-07-22T11:08:17;25.20;99.90
18753;DHT22;9505;50.882;5.350;2022-07-22T11:10:50;25.90;99.90
18753;DHT22;9505;50.882;5.350;2022-07-22T11:13:31;26.50;99.90
18753;DHT22;9505;50.882;5.350;2022-07-22T11:16:20;26.70;99.90
18753;DHT22;9505;50.882;5.350;2022-07-22T11:19:00;26.70;99.90
18753;DHT22;9505;50.882;5.350;2022-07-22T11:21:28;26.90;99.90
18753;DHT22;9505;50.882;5.350;2022-07-22T11:23:57;27.30;99.90
18753;DHT22;9505;50.882;5.350;2022-07-22T11:26:35;27.60;99.90
18753;DHT22;9505;50.882;5.350;2022-07-22T11:29:01;27.70;99.90
18753;DHT22;9505;50.882;5.350;2022-07-22T11:31:27;27.60;99.90
18753;DHT22;9505;50.882;5.350;2022-07-22T11:34:04;26.90;99.90
18753;DHT22;9505;50.882;5.350;2022-07-22T11:36:36;26.70;99.90
18753;DHT22;9505;50.882;5.350;2022-07-22T11:39:02;26.80;99.90
18753;DHT22;9505;50.882;5.350;2022-07-22T11:41:29;26.90;99.90
18753;DHT22;9505;50.882;5.350;2022-07-22T11:43:56;26.80;99.90
18753;DHT22;9505;50.882;5.350;2022-07-22T11:46:21;26.20;99.90
18753;DHT22;9505;50.882;5.350;2022-07-22T11:48:48;26.50;99.90
18753;DHT22;9505;50.882;5.350;2022-07-22T11:51:14;26.90;99.90
18753;DHT22;9505;50.882;5.350;2022-07-22T11:53:41;27.20;99.90
18753;DHT22;9505;50.882;5.350;2022-07-22T11:56:08;27.40;99.90
18753;DHT22;9505;50.882;5.350;2022-07-22T11:58:42;27.20;99.90
18753;DHT22;9505;50.882;5.350;2022-07-22T12:01:10;27.50;99.90
18753;DHT22;9505;50.882;5.350;2022-07-22T12:03:37;27.60;99.90
18753;DHT22;9505;50.882;5.350;2022-07-22T12:06:05;27.90;99.90
18753;DHT22;9505;50.882;5.350;2022-07-22T12:08:32;27.80;99.90
18753;DHT22;9505;50.882;5.350;2022-07-22T12:10:58;27.30;99.90
18753;DHT22;9505;50.882;5.350;2022-07-22T12:13:31;27.40;99.90
18753;DHT22;9505;50.882;5.350;2022-07-22T12:15:58;27.30;99.90
18753;DHT22;9505;50.882;5.350;2022-07-22T12:18:26;26.80;99.90
18753;DHT22;9505;50.882;5.350;2022-07-22T12:20:53;27.10;99.90
18753;DHT22;9505;50.882;5.350;2022-07-22T12:23:24;26.60;99.90
18753;DHT22;9505;50.882;5.350;2022-07-22T12:25:55;26.80;99.90
18753;DHT22;9505;50.882;5.350;2022-07-22T12:28:22;27.20;99.90
18753;DHT22;9505;50.882;5.350;2022-07-22T12:30:50;27.40;99.90
18753;DHT22;9505;50.882;5.350;2022-07-22T12:33:16;27.80;99.90
18753;DHT22;9505;50.882;5.350;2022-07-22T12:35:43;27.80;99.90
18753;DHT22;9505;50.882;5.350;2022-07-22T12:38:10;27.60;99.90
18753;DHT22;9505;50.882;5.350;2022-07-22T12:40:37;26.90;99.90
18753;DHT22;9505;50.882;5.350;2022-07-22T12:43:06;27.40;99.90
18753;DHT22;9505;50.882;5.350;2022-07-22T12:45:35;28.10;99.90
18753;DHT22;9505;50.882;5.350;2022-07-22T12:50:38;27.90;99.90
18753;DHT22;9505;50.882;5.350;2022-07-22T12:55:41;28.00;99.90
18753;DHT22;9505;50.882;5.350;2022-07-22T12:58:08;27.90;99.90
18753;DHT22;9505;50.882;5.350;2022-07-22T13:00:38;27.60;99.90
18753;DHT22;9505;50.882;5.350;2022-07-22T13:03:04;27.80;99.90
18753;DHT22;9505;50.882;5.350;2022-07-22T13:05:30;28.00;99.90
18753;DHT22;9505;50.882;5.350;2022-07-22T13:07:56;28.10;99.90
18753;DHT22;9505;50.882;5.350;2022-07-22T13:10:23;28.60;99.90
18753;DHT22;9505;50.882;5.350;2022-07-22T13:12:50;29.00;99.90
18753;DHT22;9505;50.882;5.350;2022-07-22T13:15:16;29.10;99.90
18753;DHT22;9505;50.882;5.350;2022-07-22T13:17:42;29.00;99.90
18753;DHT22;9505;50.882;5.350;2022-07-22T13:20:09;28.90;99.90
18753;DHT22;9505;50.882;5.350;2022-07-22T13:22:35;29.00;99.90
18753;DHT22;9505;50.882;5.350;2022-07-22T13:25:01;29.30;99.90
18753;DHT22;9505;50.882;5.350;2022-07-22T13:27:27;29.60;99.90
18753;DHT22;9505;50.882;5.350;2022-07-22T13:29:52;29.40;99.90
18753;DHT22;9505;50.882;5.350;2022-07-22T13:32:18;29.50;99.90
18753;DHT22;9505;50.882;5.350;2022-07-22T13:34:44;28.50;99.90
18753;DHT22;9505;50.882;5.350;2022-07-22T13:37:09;28.60;99.90
18753;DHT22;9505;50.882;5.350;2022-07-22T13:39:36;28.60;99.90
18753;DHT22;9505;50.882;5.350;2022-07-22T13:42:01;28.50;99.90
18753;DHT22;9505;50.882;5.350;2022-07-22T13:44:27;28.80;99.90
18753;DHT22;9505;50.882;5.350;2022-07-22T13:46:53;29.00;99.90
18753;DHT22;9505;50.882;5.350;2022-07-22T13:49:18;28.50;99.90
18753;DHT22;9505;50.882;5.350;2022-07-22T13:51:44;29.00;99.90
18753;DHT22;9505;50.882;5.350;2022-07-22T13:54:09;28.30;99.90
18753;DHT22;9505;50.882;5.350;2022-07-22T13:56:35;28.60;99.90
18753;DHT22;9505;50.882;5.350;2022-07-22T13:59:02;29.20;99.90
18753;DHT22;9505;50.882;5.350;2022-07-22T14:01:28;29.80;99.90
18753;DHT22;9505;50.882;5.350;2022-07-22T14:03:54;29.80;98.90
18753;DHT22;9505;50.882;5.350;2022-07-22T14:06:20;29.00;99.50
18753;DHT22;9505;50.882;5.350;2022-07-22T14:08:45;29.10;99.90
18753;DHT22;9505;50.882;5.350;2022-07-22T14:11:11;28.70;99.90
18753;DHT22;9505;50.882;5.350;2022-07-22T14:13:37;28.40;99.90
18753;DHT22;9505;50.882;5.350;2022-07-22T14:16:03;28.40;99.90
18753;DHT22;9505;50.882;5.350;2022-07-22T14:18:48;28.30;99.90
18753;DHT22;9505;50.882;5.350;2022-07-22T14:21:13;27.60;99.90
18753;DHT22;9505;50.882;5.350;2022-07-22T14:23:39;27.40;99.90
18753;DHT22;9505;50.882;5.350;2022-07-22T14:26:05;27.20;99.90
18753;DHT22;9505;50.882;5.350;2022-07-22T14:28:31;27.80;99.90
18753;DHT22;9505;50.882;5.350;2022-07-22T14:30:56;28.60;99.90
18753;DHT22;9505;50.882;5.350;2022-07-22T14:33:22;28.80;99.90
18753;DHT22;9505;50.882;5.350;2022-07-22T14:35:49;28.80;99.90
18753;DHT22;9505;50.882;5.350;2022-07-22T14:38:14;28.50;99.90
18753;DHT22;9505;50.882;5.350;2022-07-22T14:40:40;28.90;99.90
18753;DHT22;9505;50.882;5.350;2022-07-22T14:43:05;29.40;99.90
18753;DHT22;9505;50.882;5.350;2022-07-22T14:45:31;30.30;99.90
18753;DHT22;9505;50.882;5.350;2022-07-22T14:47:57;30.40;98.30
18753;DHT22;9505;50.882;5.350;2022-07-22T14:50:22;30.50;98.80
18753;DHT22;9505;50.882;5.350;2022-07-22T14:52:48;30.50;99.40
18753;DHT22;9505;50.882;5.350;2022-07-22T14:55:13;30.60;98.90
18753;DHT22;9505;50.882;5.350;2022-07-22T14:57:39;30.40;98.50
18753;DHT22;9505;50.882;5.350;2022-07-22T15:00:05;30.40;99.40
18753;DHT22;9505;50.882;5.350;2022-07-22T15:02:32;30.50;99.50
18753;DHT22;9505;50.882;5.350;2022-07-22T15:04:57;30.30;98.00
18753;DHT22;9505;50.882;5.350;2022-07-22T15:07:23;30.30;98.60
18753;DHT22;9505;50.882;5.350;2022-07-22T15:09:49;30.40;99.20
18753;DHT22;9505;50.882;5.350;2022-07-22T15:12:14;30.60;98.20
18753;DHT22;9505;50.882;5.350;2022-07-22T15:14:40;30.30;98.80
18753;DHT22;9505;50.882;5.350;2022-07-22T15:17:06;30.50;99.10
18753;DHT22;9505;50.882;5.350;2022-07-22T15:19:31;30.60;98.30
18753;DHT22;9505;50.882;5.350;2022-07-22T15:21:57;29.70;99.30
18753;DHT22;9505;50.882;5.350;2022-07-22T15:24:23;29.70;99.20
18753;DHT22;9505;50.882;5.350;2022-07-22T15:26:49;29.80;98.30
18753;DHT22;9505;50.882;5.350;2022-07-22T15:29:16;29.60;99.60
18753;DHT22;9505;50.882;5.350;2022-07-22T15:31:42;29.70;99.90
18753;DHT22;9505;50.882;5.350;2022-07-22T15:34:08;30.20;99.10
18753;DHT22;9505;50.882;5.350;2022-07-22T15:36:33;29.50;99.90
18753;DHT22;9505;50.882;5.350;2022-07-22T15:38:59;29.80;99.90
18753;DHT22;9505;50.882;5.350;2022-07-22T15:41:25;29.90;99.10
18753;DHT22;9505;50.882;5.350;2022-07-22T15:43:50;29.80;99.20
18753;DHT22;9505;50.882;5.350;2022-07-22T15:46:16;29.90;99.90
18753;DHT22;9505;50.882;5.350;2022-07-22T15:48:42;30.00;99.90
18753;DHT22;9505;50.882;5.350;2022-07-22T15:51:08;29.90;99.60
18753;DHT22;9505;50.882;5.350;2022-07-22T15:53:35;29.70;99.20
18753;DHT22;9505;50.882;5.350;2022-07-22T15:56:01;29.10;98.80
18753;DHT22;9505;50.882;5.350;2022-07-22T15:58:27;28.50;99.90
18753;DHT22;9505;50.882;5.350;2022-07-22T16:01:11;28.00;99.90
18753;DHT22;9505;50.882;5.350;2022-07-22T16:03:37;27.80;99.90
18753;DHT22;9505;50.882;5.350;2022-07-22T16:06:03;27.70;99.90
18753;DHT22;9505;50.882;5.350;2022-07-22T16:08:29;27.70;99.90
18753;DHT22;9505;50.882;5.350;2022-07-22T16:10:54;27.60;99.90